Time,TemperatureF,DewpointF,PressureIn,WindDirection,WindDirectionDegrees,WindSpeedMPH,WindSpeedGustMPH,Humidity,HourlyPrecipIn,Conditions,Clouds,dailyrainin,SoftwareType,DateUTC
2013-02-18 00:02:00,28.8,23.0,29.77,ESE,117,4.0,8.0,79,0.00,,,0.00,weatherlink.com 1.10,2013-02-18 06:02:00,
2013-02-18 00:16:00,28.8,23.0,29.76,ESE,122,0.0,7.0,79,0.00,,,0.00,weatherlink.com 1.10,2013-02-18 06:16:00,
2013-02-18 00:31:00,28.8,23.0,29.75,SSE,150,0.0,5.0,79,0.00,,,0.00,weatherlink.com 1.10,2013-02-18 06:31:00,
2013-02-18 00:47:00,28.9,23.0,29.75,SE,140,0.0,4.0,80,0.00,,,0.00,weatherlink.com 1.10,2013-02-18 06:47:00,
2013-02-18 01:02:00,29.1,24.0,29.74,ESE,119,0.0,4.0,80,0.00,,,0.00,weatherlink.com 1.10,2013-02-18 07:02:00,
2013-02-18 01:17:00,29.4,24.0,29.73,ESE,117,0.0,4.0,79,0.00,,,0.00,weatherlink.com 1.10,2013-02-18 07:17:00,
2013-02-18 01:32:00,29.7,24.0,29.72,SE,134,0.0,5.0,79,0.00,,,0.00,weatherlink.com 1.10,2013-02-18 07:32:00,
2013-02-18 01:47:00,30.1,24.0,29.71,SE,124,1.0,8.0,79,0.00,,,0.00,weatherlink.com 1.10,2013-02-18 07:47:00,
2013-02-18 02:02:00,30.4,24.0,29.70,SE,129,0.0,7.0,78,0.00,,,0.00,weatherlink.com 1.10,2013-02-18 08:02:00,
2013-02-18 02:17:00,30.4,25.0,29.70,ESE,116,3.0,8.0,79,0.00,,,0.00,weatherlink.com 1.10,2013-02-18 08:17:00,
2013-02-18 02:32:00,30.4,25.0,29.70,ESE,122,2.0,7.0,79,0.00,,,0.00,weatherlink.com 1.10,2013-02-18 08:32:00,
2013-02-18 02:47:00,30.4,25.0,29.70,SE,139,1.0,8.0,79,0.00,,,0.00,weatherlink.com 1.10,2013-02-18 08:47:00,
2013-02-18 03:02:00,30.4,25.0,29.69,SE,126,0.0,6.0,79,0.00,,,0.00,weatherlink.com 1.10,2013-02-18 09:02:00,
2013-02-18 03:17:00,30.2,24.0,29.68,ESE,120,0.0,5.0,79,0.00,,,0.00,weatherlink.com 1.10,2013-02-18 09:17:00,
2013-02-18 03:32:00,30.1,25.0,29.68,SE,125,1.0,4.0,80,0.00,,,0.00,weatherlink.com 1.10,2013-02-18 09:32:00,
2013-02-18 03:47:00,30.0,25.0,29.67,ESE,119,0.0,4.0,80,0.00,,,0.00,weatherlink.com 1.10,2013-02-18 09:47:00,
2013-02-18 04:02:00,29.9,25.0,29.66,ESE,102,0.0,2.0,81,0.00,,,0.00,weatherlink.com 1.10,2013-02-18 10:02:00,
2013-02-18 04:17:00,29.8,25.0,29.65,ESE,103,0.0,1.0,81,0.00,,,0.00,weatherlink.com 1.10,2013-02-18 10:17:00,
2013-02-18 04:32:00,29.9,25.0,29.66,SE,144,0.0,3.0,82,0.00,,,0.00,weatherlink.com 1.10,2013-02-18 10:32:00,
2013-02-18 04:47:00,30.0,25.0,29.65,SE,144,0.0,1.0,82,0.00,,,0.00,weatherlink.com 1.10,2013-02-18 10:47:00,
2013-02-18 05:02:00,29.9,25.0,29.65,SE,144,0.0,0.0,82,0.00,,,0.00,weatherlink.com 1.10,2013-02-18 11:02:00,
2013-02-18 05:17:00,29.6,25.0,29.66,SE,144,0.0,0.0,82,0.00,,,0.00,weatherlink.com 1.10,2013-02-18 11:17:00,
2013-02-18 05:32:00,29.1,25.0,29.65,SE,144,0.0,0.0,83,0.00,,,0.00,weatherlink.com 1.10,2013-02-18 11:32:00,
2013-02-18 05:47:00,28.9,25.0,29.65,SE,144,0.0,0.0,85,0.00,,,0.00,weatherlink.com 1.10,2013-02-18 11:47:00,
2013-02-18 06:02:00,28.8,25.0,29.65,SE,144,0.0,0.0,85,0.00,,,0.00,weatherlink.com 1.10,2013-02-18 12:02:00,
2013-02-18 06:17:00,29.0,25.0,29.64,SE,144,0.0,0.0,85,0.00,,,0.00,weatherlink.com 1.10,2013-02-18 12:17:00,
2013-02-18 06:33:00,28.5,25.0,29.65,SE,144,0.0,0.0,85,0.00,,,0.00,weatherlink.com 1.10,2013-02-18 12:33:00,
2013-02-18 06:47:00,28.1,25.0,29.65,SE,144,0.0,0.0,87,0.00,,,0.00,weatherlink.com 1.10,2013-02-18 12:47:00,
2013-02-18 07:02:00,27.9,24.0,29.64,SE,144,0.0,0.0,86,0.00,,,0.00,weatherlink.com 1.10,2013-02-18 13:02:00,
2013-02-18 07:17:00,27.4,24.0,29.64,SE,144,0.0,0.0,87,0.00,,,0.00,weatherlink.com 1.10,2013-02-18 13:17:00,
2013-02-18 07:33:00,27.2,24.0,29.65,SE,144,0.0,0.0,88,0.00,,,0.00,weatherlink.com 1.10,2013-02-18 13:33:00,
2013-02-18 07:48:00,28.5,26.0,29.65,SSE,154,0.0,2.0,90,0.00,,,0.00,weatherlink.com 1.10,2013-02-18 13:48:00,
2013-02-18 08:02:00,30.1,28.0,29.66,SSE,165,0.0,2.0,91,0.00,,,0.00,weatherlink.com 1.10,2013-02-18 14:02:00,
2013-02-18 08:17:00,31.3,29.0,29.66,SW,231,1.0,5.0,90,0.00,,,0.00,weatherlink.com 1.10,2013-02-18 14:17:00,
2013-02-18 08:32:00,31.8,29.0,29.66,SW,221,0.0,4.0,89,0.00,,,0.00,weatherlink.com 1.10,2013-02-18 14:32:00,
2013-02-18 08:48:00,32.0,29.0,29.66,SSW,205,3.0,6.0,89,0.00,,,0.00,weatherlink.com 1.10,2013-02-18 14:48:00,
2013-02-18 09:03:00,32.0,29.0,29.67,SW,225,1.0,4.0,89,0.00,,,0.00,weatherlink.com 1.10,2013-02-18 15:03:00,
2013-02-18 09:17:00,32.1,29.0,29.67,WSW,240,3.0,3.0,89,0.00,,,0.00,weatherlink.com 1.10,2013-02-18 15:17:00,
2013-02-18 09:48:00,32.6,30.0,29.67,WSW,239,0.0,3.0,88,0.00,,,0.00,weatherlink.com 1.10,2013-02-18 15:48:00,
2013-02-18 10:03:00,33.0,30.0,29.67,West,278,2.0,5.0,88,0.00,,,0.00,weatherlink.com 1.10,2013-02-18 16:03:00,
2013-02-18 10:18:00,33.4,30.0,29.67,West,271,0.0,6.0,88,0.00,,,0.00,weatherlink.com 1.10,2013-02-18 16:18:00,
2013-02-18 10:48:00,33.7,31.0,29.68,West,259,1.0,6.0,89,0.00,,,0.00,weatherlink.com 1.10,2013-02-18 16:48:00,
2013-02-18 11:03:00,33.8,31.0,29.68,West,261,2.0,8.0,89,0.00,,,0.00,weatherlink.com 1.10,2013-02-18 17:03:00,
2013-02-18 11:18:00,33.9,31.0,29.68,West,267,0.0,4.0,89,0.00,,,0.00,weatherlink.com 1.10,2013-02-18 17:18:00,
2013-02-18 11:33:00,34.1,32.0,29.68,West,267,3.0,4.0,90,0.00,,,0.00,weatherlink.com 1.10,2013-02-18 17:33:00,
2013-02-18 11:48:00,32.3,29.0,29.69,West,273,1.0,14.0,87,0.00,,,0.00,weatherlink.com 1.10,2013-02-18 17:48:00,
2013-02-18 12:03:00,31.0,27.0,29.69,West,263,2.0,9.0,85,0.00,,,0.00,weatherlink.com 1.10,2013-02-18 18:03:00,
2013-02-18 12:18:00,30.2,25.0,29.70,NW,325,5.0,10.0,82,0.00,,,0.00,weatherlink.com 1.10,2013-02-18 18:18:00,
2013-02-18 12:33:00,30.3,25.0,29.69,WNW,284,1.0,10.0,82,0.00,,,0.00,weatherlink.com 1.10,2013-02-18 18:33:00,
2013-02-18 12:48:00,29.6,24.0,29.69,WSW,255,3.0,9.0,80,0.00,,,0.00,weatherlink.com 1.10,2013-02-18 18:48:00,
2013-02-18 13:03:00,29.0,24.0,29.69,West,275,2.0,9.0,80,0.00,,,0.00,weatherlink.com 1.10,2013-02-18 19:03:00,
2013-02-18 13:18:00,28.1,22.0,29.70,West,278,8.0,12.0,79,0.00,,,0.00,weatherlink.com 1.10,2013-02-18 19:18:00,
2013-02-18 13:33:00,27.4,21.0,29.70,NNW,341,5.0,15.0,78,0.00,,,0.00,weatherlink.com 1.10,2013-02-18 19:33:00,
2013-02-18 13:48:00,26.9,21.0,29.72,West,261,8.0,10.0,78,0.00,,,0.00,weatherlink.com 1.10,2013-02-18 19:48:00,
2013-02-18 14:03:00,25.5,19.0,29.73,NNW,336,2.0,10.0,77,0.00,,,0.00,weatherlink.com 1.10,2013-02-18 20:03:00,
2013-02-18 14:18:00,24.6,18.0,29.74,NNW,331,5.0,14.0,77,0.00,,,0.00,weatherlink.com 1.10,2013-02-18 20:18:00,
2013-02-18 14:33:00,23.9,17.0,29.75,WSW,255,10.0,14.0,76,0.00,,,0.00,weatherlink.com 1.10,2013-02-18 20:33:00,
2013-02-18 14:48:00,23.1,17.0,29.75,WSW,258,5.0,14.0,76,0.00,,,0.00,weatherlink.com 1.10,2013-02-18 20:48:00,
2013-02-18 15:03:00,22.6,16.0,29.76,WNW,293,6.0,13.0,76,0.00,,,0.00,weatherlink.com 1.10,2013-02-18 21:03:00,
2013-02-18 15:18:00,22.2,15.0,29.77,WSW,257,9.0,13.0,75,0.00,,,0.00,weatherlink.com 1.10,2013-02-18 21:18:00,
2013-02-18 15:33:00,21.3,14.0,29.78,WSW,242,4.0,13.0,74,0.00,,,0.00,weatherlink.com 1.10,2013-02-18 21:33:00,
2013-02-18 15:49:00,21.1,14.0,29.79,WSW,257,9.0,13.0,74,0.00,,,0.00,weatherlink.com 1.10,2013-02-18 21:49:00,
2013-02-18 16:04:00,20.8,14.0,29.80,West,271,7.0,11.0,74,0.00,,,0.00,weatherlink.com 1.10,2013-02-18 22:04:00,
2013-02-18 16:18:00,20.4,14.0,29.80,West,280,3.0,12.0,75,0.00,,,0.00,weatherlink.com 1.10,2013-02-18 22:18:00,
2013-02-18 16:33:00,19.6,13.0,29.81,WNW,288,3.0,14.0,75,0.00,,,0.00,weatherlink.com 1.10,2013-02-18 22:33:00,
2013-02-18 16:48:00,19.5,13.0,29.81,WSW,249,9.0,13.0,75,0.00,,,0.00,weatherlink.com 1.10,2013-02-18 22:48:00,
2013-02-18 17:04:00,19.3,13.0,29.82,West,273,4.0,9.0,75,0.00,,,0.00,weatherlink.com 1.10,2013-02-18 23:04:00,
2013-02-18 17:18:00,18.8,12.0,29.82,NNW,342,6.0,11.0,75,0.00,,,0.00,weatherlink.com 1.10,2013-02-18 23:18:00,
2013-02-18 17:34:00,18.2,12.0,29.83,WNW,297,2.0,13.0,76,0.00,,,0.00,weatherlink.com 1.10,2013-02-18 23:34:00,
2013-02-18 17:49:00,17.7,12.0,29.83,West,278,4.0,14.0,77,0.00,,,0.00,weatherlink.com 1.10,2013-02-18 23:49:00,
2013-02-18 18:04:00,17.2,11.0,29.83,NNW,329,4.0,13.0,78,0.00,,,0.00,weatherlink.com 1.10,2013-02-19 00:04:00,
2013-02-18 18:19:00,16.8,11.0,29.84,West,281,6.0,11.0,79,0.00,,,0.00,weatherlink.com 1.10,2013-02-19 00:19:00,
2013-02-18 18:34:00,16.4,11.0,29.84,NW,307,3.0,14.0,78,0.00,,,0.00,weatherlink.com 1.10,2013-02-19 00:34:00,
2013-02-18 18:49:00,16.0,10.0,29.85,NW,321,9.0,14.0,77,0.00,,,0.00,weatherlink.com 1.10,2013-02-19 00:49:00,
2013-02-18 19:04:00,15.4,9.0,29.86,NW,322,5.0,13.0,76,0.00,,,0.00,weatherlink.com 1.10,2013-02-19 01:04:00,
2013-02-18 19:19:00,15.1,9.0,29.86,WNW,297,6.0,11.0,76,0.00,,,0.00,weatherlink.com 1.10,2013-02-19 01:19:00,
2013-02-18 19:34:00,14.6,8.0,29.87,West,273,6.0,13.0,75,0.00,,,0.00,weatherlink.com 1.10,2013-02-19 01:34:00,
2013-02-18 19:49:00,14.0,7.0,29.87,West,268,6.0,15.0,75,0.00,,,0.00,weatherlink.com 1.10,2013-02-19 01:49:00,
2013-02-18 20:04:00,13.2,7.0,29.88,NW,314,3.0,12.0,76,0.00,,,0.00,weatherlink.com 1.10,2013-02-19 02:04:00,
2013-02-18 20:34:00,12.5,7.0,29.89,NW,305,6.0,13.0,78,0.00,,,0.00,weatherlink.com 1.10,2013-02-19 02:34:00,
2013-02-18 20:49:00,12.3,7.0,29.89,NW,314,9.0,15.0,78,0.00,,,0.00,weatherlink.com 1.10,2013-02-19 02:49:00,
2013-02-18 21:04:00,11.9,7.0,29.89,WNW,300,5.0,13.0,79,0.00,,,0.00,weatherlink.com 1.10,2013-02-19 03:04:00,
2013-02-18 21:35:00,10.8,6.0,29.90,NNW,340,2.0,11.0,82,0.00,,,0.00,weatherlink.com 1.10,2013-02-19 03:35:00,
2013-02-18 21:49:00,10.3,6.0,29.90,NNW,341,11.0,11.0,83,0.00,,,0.00,weatherlink.com 1.10,2013-02-19 03:49:00,
2013-02-18 22:04:00,10.1,6.0,29.90,NW,322,11.0,11.0,83,0.00,,,0.00,weatherlink.com 1.10,2013-02-19 04:04:00,
2013-02-18 22:34:00,10.0,5.0,29.90,WNW,290,0.0,13.0,80,0.00,,,0.00,weatherlink.com 1.10,2013-02-19 04:34:00,
2013-02-18 22:49:00,9.8,5.0,29.90,NW,315,4.0,12.0,80,0.00,,,0.00,weatherlink.com 1.10,2013-02-19 04:49:00,
2013-02-18 23:04:00,9.5,5.0,29.91,NW,317,4.0,11.0,82,0.00,,,0.00,weatherlink.com 1.10,2013-02-19 05:04:00,
2013-02-18 23:20:00,9.3,5.0,29.91,WNW,302,11.0,11.0,84,0.00,,,0.00,weatherlink.com 1.10,2013-02-19 05:20:00,
2013-02-18 23:35:00,9.1,6.0,29.93,NW,320,5.0,14.0,85,0.00,,,0.00,weatherlink.com 1.10,2013-02-19 05:35:00,
2013-02-18 23:50:00,9.0,5.0,29.93,NNW,332,1.0,13.0,84,0.00,,,0.00,weatherlink.com 1.10,2013-02-19 05:50:00,